Airfield :
LOGIN :

Register | Disclaimer

   EN    FR    IT 

 










Legend :    VFR   Marginal VFR   IFR   Intensive IFR   Very Intensive IFR
Visi :
Ceiling :
>= 8 km
>= 3000ft
5 to 8 km
1000 to 3000 ft
1500m to 5 km
500 to 1000 ft
800 to 1500m
200 to 500 ft
< 800m
< 200 ft
Symbols :   Thunderstorms  Fog  Heavy snow  Heavy precipitations  Wind > 20 kt
SIGMETs :     Misc.  Thunderstorms  Icing  Turbulence  Mountain Waves  Volcanic Ashes






- Airport Elevation : 7 ft
- IATA code : ESH


EGKA - Shoreham

CURRENT METAR :
  • 231750Z 02011KT 9999 FEW017 SCT045 11/05 Q1022

EXPIRED METARs :
  • 231720Z 36011KT 9999 FEW017 SCT033 11/05 Q1021
  • 231650Z 36011KT 9999 FEW017 SCT030 12/07 Q1019
  • 231620Z 36014KT 9999 FEW018 SCT032 12/07 Q1019
  • 231550Z 35012KT 9999 FEW020 SCT040 13/07 Q1019
  • 231520Z 34016KT 9999 FEW009 13/06 Q1018

TAF TAF EGKA
Valid from the 23 at 15:00 until the 23 at 20:00 UTC


231408Z 2315/2320 30018G28KT 9999 SCT020
BECMG 2315/2318 30010KT
TEMPO 2315/2316 6000 SHRA RA BKN014
ATIS : +44 1273 467 372



MET'MAP, your aeronautical weather chart ! - Copyright ORBIFLY December 2007 - Disclaimer

ORBIFLY MET'MAP TEAM :

Programming & Development : Alexandra Zaïnal
Concept & original design : Baudouin d'Aumeries
Assistance for programming : Marc-Olivier Méhu
Technical & hardware support : Manuel Goepfert

Contact : metmap@orbifly.com




SOURCES & CREDITS :

   NOAA